Time;durP1;ratioP1;P1;durP2;ratioP2;P2;SDS_P1;SDS_P2;PMS_P1;PMS_P2;Temp;Humidity;BMP_temperature;BMP_pressure;BME280_temperature;BME280_humidity;BME280_pressure;Samples;Min_cycle;Max_cycle;Signal;HPM_P1;HPM_P2
2023/01/28 00:01:05;;;;;;;;;;;;;;;;;;4990494;28;19980;-58
2023/01/28 00:03:31;;;;;;;;;;;;;;;;;;4990431;28;19926;-57
2023/01/28 00:05:57;;;;;;;;;;;;;;;;;;4990823;28;20751;-58
2023/01/28 00:08:23;;;;;;;;;;;;;;;;;;4989348;28;20427;-58
2023/01/28 00:10:50;;;;;;;;;;;;;;;;;;4990639;28;19964;-57
2023/01/28 00:13:16;;;;;;;;;;;;;;;;;;4990218;28;19932;-57
2023/01/28 00:15:42;;;;;;;;;;;;;;;;;;4990211;28;20342;-58
2023/01/28 00:18:08;;;;;;;;;;;;;;;;;;4990345;28;20459;-57
2023/01/28 00:20:34;;;;;;;;;;;;;;;;;;4990135;28;19926;-58
2023/01/28 00:23:00;;;;;;;;;;;;;;;;;;4989470;28;20340;-58
2023/01/28 00:25:26;;;;;;;;;;;;;;;;;;4989460;28;20292;-53
2023/01/28 00:27:52;;;;;;;;;;;;;;;;;;5005355;28;19926;-58
2023/01/28 00:30:19;;;;;;;;;;;;;;;;;;4989853;28;19933;-56
2023/01/28 00:32:45;;;;;;;;;;;;;;;;;;4990057;28;19926;-58
2023/01/28 00:35:11;;;;;;;;;;;;;;;;;;4989734;28;19973;-58
2023/01/28 00:37:37;;;;;;;;;;;;;;;;;;4988933;28;19930;-56
2023/01/28 00:40:03;;;;;;;;;;;;;;;;;;4989548;28;19926;-55
2023/01/28 00:42:29;;;;;;;;;;;;;;;;;;4989916;28;19925;-58
2023/01/28 00:44:55;;;;;;;;;;;;;;;;;;4990024;28;19973;-58
2023/01/28 00:47:21;;;;;;;;;;;;;;;;;;4989540;28;19925;-57
2023/01/28 00:49:47;;;;;;;;;;;;;;;;;;4990042;28;20303;-58
2023/01/28 00:52:13;;;;;;;;;;;;;;;;;;4989510;28;19926;-57
2023/01/28 00:54:39;;;;;;;;;;;;;;;;;;4989110;28;20399;-59
2023/01/28 00:57:06;;;;;;;;;;;;;;;;;;5002958;28;19926;-57
2023/01/28 00:59:32;;;;;;;;;;;;;;;;;;4989630;28;19926;-55
2023/01/28 01:02:11;;;;;;;;;;;;;;;;;;4989332;28;19929;-57
2023/01/28 01:04:37;;;;;;;;;;;;;;;;;;4989877;28;20022;-56
2023/01/28 01:07:03;;;;;;;;;;;;;;;;;;4989663;28;19933;-52
2023/01/28 01:09:29;;;;;;;;;;;;;;;;;;4988413;28;19926;-59
2023/01/28 01:11:55;;;;;;;;;;;;;;;;;;4989270;28;19926;-57
2023/01/28 01:14:21;;;;;;;;;;;;;;;;;;4989186;28;19926;-59
2023/01/28 01:16:47;;;;;;;;;;;;;;;;;;4989011;28;19926;-56
2023/01/28 01:19:13;;;;;;;;;;;;;;;;;;4988555;28;20319;-58
2023/01/28 01:21:39;;;;;;;;;;;;;;;;;;4989094;28;20368;-58
2023/01/28 01:24:05;;;;;;;;;;;;;;;;;;4988623;28;19926;-56
2023/01/28 01:26:31;;;;;;;;;;;;;;;;;;4988725;28;19926;-57
2023/01/28 01:28:57;;;;;;;;;;;;;;;;;;4989199;28;19940;-58
2023/01/28 01:31:23;;;;;;;;;;;;;;;;;;4994684;28;20012;-58
2023/01/28 01:33:49;;;;;;;;;;;;;;;;;;4989375;28;20041;-58
2023/01/28 01:36:16;;;;;;;;;;;;;;;;;;4988214;28;19942;-56
2023/01/28 01:38:42;;;;;;;;;;;;;;;;;;4988008;28;20387;-57
2023/01/28 01:41:08;;;;;;;;;;;;;;;;;;4988427;28;20018;-58
2023/01/28 01:43:34;;;;;;;;;;;;;;;;;;4988868;28;20005;-58
2023/01/28 01:46:00;;;;;;;;;;;;;;;;;;4988402;28;20336;-57
2023/01/28 01:48:26;;;;;;;;;;;;;;;;;;4988360;28;20016;-58
2023/01/28 01:50:52;;;;;;;;;;;;;;;;;;4988634;28;20005;-58
2023/01/28 01:53:18;;;;;;;;;;;;;;;;;;4987806;28;19969;-58
2023/01/28 01:55:44;;;;;;;;;;;;;;;;;;4988350;28;19925;-54
2023/01/28 01:58:10;;;;;;;;;;;;;;;;;;4988040;28;19925;-57
2023/01/28 02:00:36;;;;;;;;;;;;;;;;;;4988857;28;20280;-57
2023/01/28 02:03:02;;;;;;;;;;;;;;;;;;4988680;28;19926;-58
2023/01/28 02:05:28;;;;;;;;;;;;;;;;;;4987882;28;19961;-57
2023/01/28 02:07:54;;;;;;;;;;;;;;;;;;4987183;28;20358;-58
2023/01/28 02:10:20;;;;;;;;;;;;;;;;;;4987773;28;19932;-58
2023/01/28 02:12:46;;;;;;;;;;;;;;;;;;5079952;23;20337;-58
2023/01/28 02:15:12;;;;;;;;;;;;;;;;;;5007607;28;20000;-59
2023/01/28 02:17:38;;;;;;;;;;;;;;;;;;5007574;28;20020;-57
2023/01/28 02:20:04;;;;;;;;;;;;;;;;;;5008251;28;19926;-58
2023/01/28 02:22:30;;;;;;;;;;;;;;;;;;5006665;28;19925;-54
2023/01/28 02:24:56;;;;;;;;;;;;;;;;;;5007819;28;19932;-58
2023/01/28 02:27:22;;;;;;;;;;;;;;;;;;5007424;28;20318;-58
2023/01/28 02:29:48;;;;;;;;;;;;;;;;;;5007308;28;19929;-58
2023/01/28 02:32:14;;;;;;;;;;;;;;;;;;5007051;28;19933;-57
2023/01/28 02:34:40;;;;;;;;;;;;;;;;;;5007615;28;19972;-57
2023/01/28 02:37:06;;;;;;;;;;;;;;;;;;5007267;28;19928;-58
2023/01/28 02:39:32;;;;;;;;;;;;;;;;;;5007894;28;19926;-59
2023/01/28 02:41:58;;;;;;;;;;;;;;;;;;5007430;28;19925;-58
2023/01/28 02:44:24;;;;;;;;;;;;;;;;;;5007069;28;20345;-58
2023/01/28 02:49:35;;;;;;;;;;;;;;;;;;5007733;28;20365;-57
2023/01/28 02:52:01;;;;;;;;;;;;;;;;;;5006822;28;20406;-58
2023/01/28 02:54:27;;;;;;;;;;;;;;;;;;5007498;28;19939;-57
2023/01/28 02:56:53;;;;;;;;;;;;;;;;;;5007069;28;19925;-58
2023/01/28 02:59:34;;;;;;;;;;;;;;;;;;5005346;28;19932;-58
2023/01/28 03:02:00;;;;;;;;;;;;;;;;;;5001915;28;20295;-58
2023/01/28 03:04:26;;;;;;;;;;;;;;;;;;5006518;28;19925;-56
2023/01/28 03:06:52;;;;;;;;;;;;;;;;;;5006716;28;19926;-54
2023/01/28 03:09:25;;;;;;;;;;;;;;;;;;4999736;28;19930;-58
2023/01/28 03:36:46;;;;;;;;;;;;;;;;;;4993671;28;20384;-58
2023/01/28 03:39:12;;;;;;;;;;;;;;;;;;5005511;28;19926;-58
2023/01/28 03:41:38;;;;;;;;;;;;;;;;;;5006300;28;19925;-57
2023/01/28 03:46:49;;;;;;;;;;;;;;;;;;4993758;28;20008;-58
2023/01/28 03:49:15;;;;;;;;;;;;;;;;;;5006525;28;20016;-56
2023/01/28 03:51:41;;;;;;;;;;;;;;;;;;5006223;28;19932;-58
2023/01/28 03:54:07;;;;;;;;;;;;;;;;;;5006058;28;20279;-56
2023/01/28 03:56:39;;;;;;;;;;;;;;;;;;5006176;28;19929;-53
2023/01/28 03:59:05;;;;;;;;;;;;;;;;;;5006818;28;20411;-58
2023/01/28 04:01:31;;;;;;;;;;;;;;;;;;5005831;28;19953;-56
2023/01/28 04:03:57;;;;;;;;;;;;;;;;;;5006383;28;20001;-58
2023/01/28 04:06:23;;;;;;;;;;;;;;;;;;5005703;28;19921;-55
2023/01/28 04:08:52;;;;;;;;;;;;;;;;;;5000956;28;19926;-58
2023/01/28 04:11:20;;;;;;;;;;;;;;;;;;4997505;28;19926;-58
2023/01/28 04:13:46;;;;;;;;;;;;;;;;;;5005755;28;19925;-57
2023/01/28 04:16:12;;;;;;;;;;;;;;;;;;5006217;28;19926;-55
2023/01/28 04:18:38;;;;;;;;;;;;;;;;;;5006211;28;19932;-58
2023/01/28 04:21:04;;;;;;;;;;;;;;;;;;5006832;28;19948;-58
2023/01/28 04:23:30;;;;;;;;;;;;;;;;;;5005457;28;20302;-58
2023/01/28 04:25:56;;;;;;;;;;;;;;;;;;5006408;28;19936;-55
2023/01/28 04:28:22;;;;;;;;;;;;;;;;;;5005721;28;20438;-56
2023/01/28 04:30:48;;;;;;;;;;;;;;;;;;4990830;28;20579;-55
2023/01/28 04:33:14;;;;;;;;;;;;;;;;;;5009703;28;19968;-58
2023/01/28 04:35:40;;;;;;;;;;;;;;;;;;5009042;28;19929;-58
2023/01/28 04:38:06;;;;;;;;;;;;;;;;;;5009037;28;19922;-58
2023/01/28 04:40:32;;;;;;;;;;;;;;;;;;5009446;28;19929;-55
2023/01/28 04:42:58;;;;;;;;;;;;;;;;;;5009620;28;20025;-58
2023/01/28 04:45:24;;;;;;;;;;;;;;;;;;5009396;28;19922;-58
2023/01/28 04:47:50;;;;;;;;;;;;;;;;;;5009433;28;20375;-58
2023/01/28 04:50:16;;;;;;;;;;;;;;;;;;5009565;28;19929;-58
2023/01/28 04:52:42;;;;;;;;;;;;;;;;;;5008374;28;20027;-57
2023/01/28 04:55:08;;;;;;;;;;;;;;;;;;5008531;28;20383;-57
2023/01/28 04:57:34;;;;;;;;;;;;;;;;;;5009595;28;19926;-58
2023/01/28 05:00:00;;;;;;;;;;;;;;;;;;5009669;28;19965;-58
2023/01/28 05:02:26;;;;;;;;;;;;;;;;;;5009046;28;20438;-55
2023/01/28 05:04:52;;;;;;;;;;;;;;;;;;5009290;28;19979;-57
2023/01/28 05:07:18;;;;;;;;;;;;;;;;;;5008281;28;20556;-57
2023/01/28 05:09:44;;;;;;;;;;;;;;;;;;4996590;28;19932;-58
2023/01/28 05:12:10;;;;;;;;;;;;;;;;;;5007217;28;19925;-58
2023/01/28 05:14:36;;;;;;;;;;;;;;;;;;5009105;28;20295;-56
2023/01/28 05:17:02;;;;;;;;;;;;;;;;;;5008831;28;20394;-57
2023/01/28 05:19:28;;;;;;;;;;;;;;;;;;5008463;28;19929;-59
2023/01/28 05:21:54;;;;;;;;;;;;;;;;;;5007302;28;19948;-57
2023/01/28 05:24:20;;;;;;;;;;;;;;;;;;5006627;28;19995;-58
2023/01/28 05:26:46;;;;;;;;;;;;;;;;;;5008462;28;19925;-56
2023/01/28 05:29:12;;;;;;;;;;;;;;;;;;5008007;28;20379;-54
2023/01/28 05:31:38;;;;;;;;;;;;;;;;;;5008410;28;19929;-57
2023/01/28 05:34:04;;;;;;;;;;;;;;;;;;5008750;28;19979;-56
2023/01/28 05:36:30;;;;;;;;;;;;;;;;;;5007342;28;20437;-58
2023/01/28 05:38:56;;;;;;;;;;;;;;;;;;5007486;28;19932;-55
2023/01/28 05:41:22;;;;;;;;;;;;;;;;;;5006750;28;19925;-57
2023/01/28 05:43:48;;;;;;;;;;;;;;;;;;5008327;28;19925;-56
2023/01/28 05:46:14;;;;;;;;;;;;;;;;;;5007856;28;20008;-58
2023/01/28 05:48:40;;;;;;;;;;;;;;;;;;5008651;28;20020;-58
2023/01/28 05:51:06;;;;;;;;;;;;;;;;;;5008803;28;19933;-56
2023/01/28 05:53:32;;;;;;;;;;;;;;;;;;5007597;28;19926;-57
2023/01/28 05:55:58;;;;;;;;;;;;;;;;;;5007943;28;19971;-58
2023/01/28 05:58:26;;;;;;;;;;;;;;;;;;5007886;28;20243;-58
2023/01/28 06:00:52;;;;;;;;;;;;;;;;;;5007652;28;19925;-56
2023/01/28 06:03:18;;;;;;;;;;;;;;;;;;5007990;28;20259;-56
2023/01/28 06:05:44;;;;;;;;;;;;;;;;;;5007910;28;19921;-57
2023/01/28 06:08:10;;;;;;;;;;;;;;;;;;5007195;28;19971;-57
2023/01/28 06:10:36;;;;;;;;;;;;;;;;;;4994779;28;20382;-58
2023/01/28 06:13:02;;;;;;;;;;;;;;;;;;5004903;28;19933;-58
2023/01/28 06:15:28;;;;;;;;;;;;;;;;;;4995791;28;19983;-55
2023/01/28 06:17:54;;;;;;;;;;;;;;;;;;4989781;28;19955;-58
2023/01/28 06:20:20;;;;;;;;;;;;;;;;;;4975851;28;20020;-58
2023/01/28 06:22:46;;;;;;;;;;;;;;;;;;4991398;28;19933;-58
2023/01/28 06:25:12;;;;;;;;;;;;;;;;;;4993295;28;19929;-52
2023/01/28 06:27:38;;;;;;;;;;;;;;;;;;5000750;28;19933;-55
2023/01/28 06:30:04;;;;;;;;;;;;;;;;;;4991917;28;19956;-57
2023/01/28 06:32:31;;;;;;;;;;;;;;;;;;4997469;28;20438;-57
2023/01/28 06:34:57;;;;;;;;;;;;;;;;;;4991610;28;19929;-58
2023/01/28 06:37:23;;;;;;;;;;;;;;;;;;4990535;28;19949;-51
2023/01/28 06:39:49;;;;;;;;;;;;;;;;;;4994576;28;19930;-57
2023/01/28 06:42:15;;;;;;;;;;;;;;;;;;4987653;28;19980;-56
2023/01/28 06:44:41;;;;;;;;;;;;;;;;;;4996184;28;19926;-58
2023/01/28 06:47:08;;;;;;;;;;;;;;;;;;4994887;28;20042;-53
2023/01/28 06:49:34;;;;;;;;;;;;;;;;;;4973651;28;19971;-50
2023/01/28 06:52:00;;;;;;;;;;;;;;;;;;4987882;28;19930;-57
2023/01/28 06:54:26;;;;;;;;;;;;;;;;;;4993619;28;19964;-57
2023/01/28 06:56:52;;;;;;;;;;;;;;;;;;4996986;28;20418;-58
2023/01/28 06:59:18;;;;;;;;;;;;;;;;;;4971613;28;19930;-57
2023/01/28 07:01:44;;;;;;;;;;;;;;;;;;4992386;28;19926;-58
2023/01/28 07:04:10;;;;;;;;;;;;;;;;;;4992668;28;20355;-57
2023/01/28 07:06:36;;;;;;;;;;;;;;;;;;5002829;28;19930;-56
2023/01/28 07:12:04;;;;;;;;;;;;;;;;;;5000675;28;19928;-56
2023/01/28 07:14:30;;;;;;;;;;;;;;;;;;5007126;28;19933;-58
2023/01/28 07:16:56;;;;;;;;;;;;;;;;;;5007249;28;20675;-57
2023/01/28 07:19:22;;;;;;;;;;;;;;;;;;5007457;28;20028;-57
2023/01/28 07:21:48;;;;;;;;;;;;;;;;;;5002768;28;19973;-57
2023/01/28 07:24:14;;;;;;;;;;;;;;;;;;5005532;28;19969;-55
2023/01/28 07:26:40;;;;;;;;;;;;;;;;;;4989328;28;19973;-57
2023/01/28 07:29:06;;;;;;;;;;;;;;;;;;5007736;28;19926;-58
2023/01/28 07:31:32;;;;;;;;;;;;;;;;;;5007506;28;19932;-57
2023/01/28 07:33:58;;;;;;;;;;;;;;;;;;5007462;28;19986;-57
2023/01/28 07:36:24;;;;;;;;;;;;;;;;;;5006470;28;19926;-57
2023/01/28 07:38:50;;;;;;;;;;;;;;;;;;5006621;28;20030;-58
2023/01/28 07:41:16;;;;;;;;;;;;;;;;;;5008111;28;19933;-57
2023/01/28 07:43:42;;;;;;;;;;;;;;;;;;5003860;28;19935;-57
2023/01/28 07:46:08;;;;;;;;;;;;;;;;;;5002669;28;19933;-57
2023/01/28 07:48:34;;;;;;;;;;;;;;;;;;5004405;28;19930;-54
2023/01/28 07:51:00;;;;;;;;;;;;;;;;;;5004936;28;19930;-57
2023/01/28 07:53:26;;;;;;;;;;;;;;;;;;5003123;28;20842;-56
2023/01/28 07:55:52;;;;;;;;;;;;;;;;;;5004209;28;20068;-57
2023/01/28 07:58:18;;;;;;;;;;;;;;;;;;5001426;28;20012;-56
2023/01/28 08:00:44;;;;;;;;;;;;;;;;;;5004238;28;19929;-56
2023/01/28 08:03:11;;;;;;;;;;;;;;;;;;5004065;28;19929;-57
2023/01/28 08:05:38;;;;;;;;;;;;;;;;;;5006898;28;20330;-51
2023/01/28 08:13:56;;;;;;;;;;;;;;;;;;5004656;28;19926;-57
2023/01/28 08:16:22;;;;;;;;;;;;;;;;;;5007275;28;19930;-56
2023/01/28 08:21:49;;;;;;;;;;;;;;;;;;5002645;28;19932;-55
2023/01/28 08:26:45;;;;;;;;;;;;;;;;;;5010460;28;20017;-54
2023/01/28 08:29:11;;;;;;;;;;;;;;;;;;5010894;28;19925;-56
2023/01/28 08:31:37;;;;;;;;;;;;;;;;;;5011173;28;20483;-53
2023/01/28 08:34:03;;;;;;;;;;;;;;;;;;5009878;28;19976;-56
2023/01/28 08:36:29;;;;;;;;;;;;;;;;;;5008639;28;20012;-53
2023/01/28 08:38:55;;;;;;;;;;;;;;;;;;5009612;28;20329;-54
2023/01/28 08:41:21;;;;;;;;;;;;;;;;;;5010706;28;20622;-55
2023/01/28 08:43:47;;;;;;;;;;;;;;;;;;5009718;28;19973;-55
2023/01/28 08:46:13;;;;;;;;;;;;;;;;;;5007286;28;20019;-53
2023/01/28 08:48:39;;;;;;;;;;;;;;;;;;5008884;28;20004;-54
2023/01/28 08:51:05;;;;;;;;;;;;;;;;;;5010500;28;20012;-55
2023/01/28 08:53:31;;;;;;;;;;;;;;;;;;5008154;28;19941;-55
2023/01/28 08:55:57;;;;;;;;;;;;;;;;;;5007768;28;20291;-56
2023/01/28 08:58:23;;;;;;;;;;;;;;;;;;5011242;28;19979;-55
2023/01/28 09:00:49;;;;;;;;;;;;;;;;;;5008650;28;19980;-52
2023/01/28 09:03:15;;;;;;;;;;;;;;;;;;5008634;28;19922;-56
2023/01/28 09:05:41;;;;;;;;;;;;;;;;;;5008526;28;19925;-54
2023/01/28 09:08:07;;;;;;;;;;;;;;;;;;5013118;28;19986;-54
2023/01/28 09:10:33;;;;;;;;;;;;;;;;;;5012436;28;20016;-54
2023/01/28 09:12:59;;;;;;;;;;;;;;;;;;5004825;28;19926;-55
2023/01/28 09:15:25;;;;;;;;;;;;;;;;;;5007505;28;19932;-55
2023/01/28 09:17:51;;;;;;;;;;;;;;;;;;5012463;28;19925;-55
2023/01/28 09:20:17;;;;;;;;;;;;;;;;;;5012112;28;19950;-55
2023/01/28 09:22:43;;;;;;;;;;;;;;;;;;5011471;28;20371;-55
2023/01/28 09:25:09;;;;;;;;;;;;;;;;;;5008532;28;19926;-55
2023/01/28 09:27:35;;;;;;;;;;;;;;;;;;5009299;28;19998;-52
2023/01/28 09:30:01;;;;;;;;;;;;;;;;;;5012787;28;20654;-56
2023/01/28 09:32:27;;;;;;;;;;;;;;;;;;5008325;28;19972;-53
2023/01/28 09:34:53;;;;;;;;;;;;;;;;;;5011181;28;20391;-54
2023/01/28 09:37:19;;;;;;;;;;;;;;;;;;5007367;28;19926;-54
2023/01/28 09:39:45;;;;;;;;;;;;;;;;;;5014133;28;19925;-55
2023/01/28 09:42:11;;;;;;;;;;;;;;;;;;5020100;28;19933;-55
2023/01/28 09:44:37;;;;;;;;;;;;;;;;;;5007705;28;19932;-55
2023/01/28 09:47:03;;;;;;;;;;;;;;;;;;5008606;28;20027;-54
2023/01/28 09:49:30;;;;;;;;;;;;;;;;;;5009640;28;20425;-55
2023/01/28 09:51:56;;;;;;;;;;;;;;;;;;5007655;28;19964;-55
2023/01/28 09:54:22;;;;;;;;;;;;;;;;;;5006931;28;20012;-51
2023/01/28 09:56:49;;;;;;;;;;;;;;;;;;5015447;28;19925;-55
2023/01/28 09:59:15;;;;;;;;;;;;;;;;;;5013337;28;19940;-56
2023/01/28 10:01:43;;;;;;;;;;;;;;;;;;5010561;28;19925;-54
2023/01/28 10:04:09;;;;;;;;;;;;;;;;;;5007127;28;19937;-56
2023/01/28 10:06:35;;;;;;;;;;;;;;;;;;5007958;28;19925;-54
2023/01/28 10:09:01;;;;;;;;;;;;;;;;;;5008408;28;19929;-53
2023/01/28 10:11:27;;;;;;;;;;;;;;;;;;5005307;28;20020;-52
2023/01/28 10:13:53;;;;;;;;;;;;;;;;;;4995924;28;20409;-56
2023/01/28 10:16:20;;;;;;;;;;;;;;;;;;4991845;28;20514;-55
2023/01/28 10:18:46;;;;;;;;;;;;;;;;;;5000053;28;19925;-55
2023/01/28 10:21:12;;;;;;;;;;;;;;;;;;4998939;28;19934;-55
2023/01/28 10:23:38;;;;;;;;;;;;;;;;;;4995274;28;20006;-56
2023/01/28 10:26:04;;;;;;;;;;;;;;;;;;4996531;28;20350;-55
2023/01/28 10:28:31;;;;;;;;;;;;;;;;;;4996743;28;21540;-55
2023/01/28 10:30:57;;;;;;;;;;;;;;;;;;4996784;28;19929;-55
2023/01/28 10:33:23;;;;;;;;;;;;;;;;;;5002073;28;20367;-53
2023/01/28 10:35:49;;;;;;;;;;;;;;;;;;5001810;28;20582;-56
2023/01/28 10:38:15;;;;;;;;;;;;;;;;;;4999055;28;19977;-56
2023/01/28 10:40:41;;;;;;;;;;;;;;;;;;4998355;28;19968;-53
2023/01/28 10:43:07;;;;;;;;;;;;;;;;;;5000440;28;20016;-57
2023/01/28 10:45:33;;;;;;;;;;;;;;;;;;4998225;28;19926;-55
2023/01/28 10:48:00;;;;;;;;;;;;;;;;;;5002085;28;19926;-53
2023/01/28 10:50:26;;;;;;;;;;;;;;;;;;4999881;28;20032;-57
2023/01/28 10:52:52;;;;;;;;;;;;;;;;;;4999739;28;20067;-56
2023/01/28 10:55:18;;;;;;;;;;;;;;;;;;4998848;28;20066;-57
2023/01/28 10:57:44;;;;;;;;;;;;;;;;;;4996346;28;19929;-50
2023/01/28 11:00:10;;;;;;;;;;;;;;;;;;4998816;28;19979;-56
2023/01/28 11:02:36;;;;;;;;;;;;;;;;;;4996574;28;19926;-54
2023/01/28 11:05:02;;;;;;;;;;;;;;;;;;4998197;28;20178;-56
2023/01/28 11:07:28;;;;;;;;;;;;;;;;;;4991598;28;19926;-55
2023/01/28 11:09:54;;;;;;;;;;;;;;;;;;4990329;28;19926;-56
2023/01/28 11:12:20;;;;;;;;;;;;;;;;;;4986352;28;20253;-54
2023/01/28 11:14:46;;;;;;;;;;;;;;;;;;4991937;28;20261;-56
2023/01/28 11:17:12;;;;;;;;;;;;;;;;;;4988570;28;20535;-56
2023/01/28 11:19:38;;;;;;;;;;;;;;;;;;4989703;28;20528;-56
2023/01/28 11:22:04;;;;;;;;;;;;;;;;;;4988848;28;19932;-54
2023/01/28 11:24:30;;;;;;;;;;;;;;;;;;4989665;28;19935;-55
2023/01/28 11:26:56;;;;;;;;;;;;;;;;;;4988944;28;19937;-57
2023/01/28 11:29:22;;;;;;;;;;;;;;;;;;4988365;28;19926;-52
2023/01/28 11:31:48;;;;;;;;;;;;;;;;;;4989667;28;19960;-56
2023/01/28 11:34:14;;;;;;;;;;;;;;;;;;4988766;28;19971;-55
2023/01/28 11:36:40;;;;;;;;;;;;;;;;;;4989133;28;20020;-56
2023/01/28 11:39:06;;;;;;;;;;;;;;;;;;4991261;28;20044;-56
2023/01/28 11:41:32;;;;;;;;;;;;;;;;;;4989334;28;19925;-56
2023/01/28 11:43:58;;;;;;;;;;;;;;;;;;4994275;28;21406;-56
2023/01/28 11:46:24;;;;;;;;;;;;;;;;;;4970060;28;19971;-57
2023/01/28 11:48:50;;;;;;;;;;;;;;;;;;4989935;28;19926;-55
2023/01/28 11:51:16;;;;;;;;;;;;;;;;;;4988032;28;19932;-54
2023/01/28 11:53:42;;;;;;;;;;;;;;;;;;4971420;28;20300;-55
2023/01/28 11:56:08;;;;;;;;;;;;;;;;;;4988906;28;20447;-53
2023/01/28 11:58:34;;;;;;;;;;;;;;;;;;4991944;28;20063;-56
2023/01/28 12:01:00;;;;;;;;;;;;;;;;;;4986873;28;19926;-55
2023/01/28 12:03:26;;;;;;;;;;;;;;;;;;4993214;28;19976;-54
2023/01/28 12:05:52;;;;;;;;;;;;;;;;;;4995492;28;20412;-55
2023/01/28 12:08:19;;;;;;;;;;;;;;;;;;4994745;28;19936;-56
2023/01/28 12:10:45;;;;;;;;;;;;;;;;;;4992506;28;19953;-56
2023/01/28 12:13:11;;;;;;;;;;;;;;;;;;4987877;28;20008;-56
2023/01/28 12:15:37;;;;;;;;;;;;;;;;;;4996464;28;20033;-55
2023/01/28 12:18:03;;;;;;;;;;;;;;;;;;4991430;28;19972;-55
2023/01/28 12:20:30;;;;;;;;;;;;;;;;;;4997334;28;20558;-56
2023/01/28 12:22:57;;;;;;;;;;;;;;;;;;5004766;28;19971;-56
2023/01/28 12:25:23;;;;;;;;;;;;;;;;;;5009590;28;19961;-55
2023/01/28 12:27:49;;;;;;;;;;;;;;;;;;5008681;28;20395;-57
2023/01/28 12:30:15;;;;;;;;;;;;;;;;;;5007687;28;19944;-56
2023/01/28 12:32:41;;;;;;;;;;;;;;;;;;5007135;28;19948;-57
2023/01/28 12:35:07;;;;;;;;;;;;;;;;;;5005658;28;19930;-56
2023/01/28 12:37:33;;;;;;;;;;;;;;;;;;5005862;28;19931;-57
2023/01/28 12:39:59;;;;;;;;;;;;;;;;;;5007761;28;20415;-56
2023/01/28 12:42:25;;;;;;;;;;;;;;;;;;5006294;28;19925;-55
2023/01/28 12:44:51;;;;;;;;;;;;;;;;;;5006339;28;19968;-55
2023/01/28 12:47:17;;;;;;;;;;;;;;;;;;5005367;28;19925;-56
2023/01/28 12:49:43;;;;;;;;;;;;;;;;;;5010792;28;19926;-56
2023/01/28 12:52:09;;;;;;;;;;;;;;;;;;5015802;28;19953;-56
2023/01/28 12:54:35;;;;;;;;;;;;;;;;;;5022305;28;19931;-56
2023/01/28 12:57:01;;;;;;;;;;;;;;;;;;5011965;28;19929;-56
2023/01/28 12:59:27;;;;;;;;;;;;;;;;;;5010419;28;19952;-55
2023/01/28 13:01:53;;;;;;;;;;;;;;;;;;4997203;28;20021;-56
2023/01/28 13:04:19;;;;;;;;;;;;;;;;;;5011257;28;20004;-53
2023/01/28 13:06:45;;;;;;;;;;;;;;;;;;5008953;28;20383;-56
2023/01/28 13:09:11;;;;;;;;;;;;;;;;;;5012533;28;19922;-56
2023/01/28 13:11:37;;;;;;;;;;;;;;;;;;5010270;28;19925;-56
2023/01/28 13:14:03;;;;;;;;;;;;;;;;;;5013101;28;20075;-56
2023/01/28 13:16:29;;;;;;;;;;;;;;;;;;5009088;28;20028;-56
2023/01/28 13:18:55;;;;;;;;;;;;;;;;;;5011633;28;20015;-56
2023/01/28 13:21:21;;;;;;;;;;;;;;;;;;5017000;28;19926;-56
2023/01/28 13:23:47;;;;;;;;;;;;;;;;;;5013443;28;19925;-55
2023/01/28 13:26:13;;;;;;;;;;;;;;;;;;5008355;28;19929;-56
2023/01/28 13:28:39;;;;;;;;;;;;;;;;;;5021336;28;20290;-56
2023/01/28 13:31:05;;;;;;;;;;;;;;;;;;5015138;28;19929;-54
2023/01/28 13:33:31;;;;;;;;;;;;;;;;;;5015966;28;19925;-56
2023/01/28 13:35:57;;;;;;;;;;;;;;;;;;5010727;28;19936;-55
2023/01/28 13:38:24;;;;;;;;;;;;;;;;;;5014543;28;19929;-57
2023/01/28 13:40:50;;;;;;;;;;;;;;;;;;5011166;28;20316;-56
2023/01/28 13:43:16;;;;;;;;;;;;;;;;;;5021019;28;19925;-57
2023/01/28 13:45:42;;;;;;;;;;;;;;;;;;5011162;28;20314;-56
2023/01/28 13:48:08;;;;;;;;;;;;;;;;;;5009510;28;19925;-56
2023/01/28 13:50:34;;;;;;;;;;;;;;;;;;5018201;28;19952;-54
2023/01/28 13:53:00;;;;;;;;;;;;;;;;;;5013490;28;19932;-56
2023/01/28 13:55:26;;;;;;;;;;;;;;;;;;5015928;28;20421;-55
2023/01/28 13:57:52;;;;;;;;;;;;;;;;;;5010637;28;19964;-54
2023/01/28 14:00:18;;;;;;;;;;;;;;;;;;5008387;28;19972;-55
2023/01/28 14:02:44;;;;;;;;;;;;;;;;;;5015303;28;20044;-56
2023/01/28 14:05:10;;;;;;;;;;;;;;;;;;5008729;28;19922;-56
2023/01/28 14:07:36;;;;;;;;;;;;;;;;;;5011321;28;19925;-56
2023/01/28 14:10:02;;;;;;;;;;;;;;;;;;5018532;28;19964;-56
2023/01/28 14:12:28;;;;;;;;;;;;;;;;;;5017606;28;19983;-56
2023/01/28 14:14:54;;;;;;;;;;;;;;;;;;5014285;28;20016;-53
2023/01/28 14:17:20;;;;;;;;;;;;;;;;;;5008326;28;20340;-57
2023/01/28 14:19:46;;;;;;;;;;;;;;;;;;5013138;28;20395;-52
2023/01/28 14:22:12;;;;;;;;;;;;;;;;;;5009524;28;20469;-55
2023/01/28 14:24:38;;;;;;;;;;;;;;;;;;5010500;28;19933;-56
2023/01/28 14:27:04;;;;;;;;;;;;;;;;;;5022827;28;19925;-57
2023/01/28 14:29:30;;;;;;;;;;;;;;;;;;5011379;28;19987;-55
2023/01/28 14:31:56;;;;;;;;;;;;;;;;;;5012979;28;20007;-56
2023/01/28 14:34:22;;;;;;;;;;;;;;;;;;5007800;28;20364;-57
2023/01/28 14:36:48;;;;;;;;;;;;;;;;;;5007591;28;20319;-56
2023/01/28 14:39:14;;;;;;;;;;;;;;;;;;5016031;28;19926;-56
2023/01/28 14:41:40;;;;;;;;;;;;;;;;;;5011886;28;19954;-57
2023/01/28 14:44:06;;;;;;;;;;;;;;;;;;5010874;28;20302;-56
2023/01/28 14:46:32;;;;;;;;;;;;;;;;;;5008800;28;19926;-56
2023/01/28 14:48:58;;;;;;;;;;;;;;;;;;5019709;28;19933;-56
2023/01/28 14:51:24;;;;;;;;;;;;;;;;;;5010981;28;19936;-55
2023/01/28 14:53:50;;;;;;;;;;;;;;;;;;4997747;28;20554;-57
2023/01/28 14:56:16;;;;;;;;;;;;;;;;;;5010892;28;19925;-54
2023/01/28 14:58:42;;;;;;;;;;;;;;;;;;4994486;28;19944;-56
2023/01/28 15:01:08;;;;;;;;;;;;;;;;;;5014165;28;20667;-56
2023/01/28 15:03:34;;;;;;;;;;;;;;;;;;5012974;28;19925;-57
2023/01/28 15:06:00;;;;;;;;;;;;;;;;;;5006694;28;19926;-56
2023/01/28 15:08:27;;;;;;;;;;;;;;;;;;5009964;28;20625;-55
2023/01/28 15:10:53;;;;;;;;;;;;;;;;;;5006719;28;20279;-56
2023/01/28 15:13:19;;;;;;;;;;;;;;;;;;5010629;28;20583;-57
2023/01/28 15:15:45;;;;;;;;;;;;;;;;;;5018779;28;19933;-57
2023/01/28 15:18:11;;;;;;;;;;;;;;;;;;5011228;28;19932;-54
2023/01/28 15:20:37;;;;;;;;;;;;;;;;;;5007296;28;19932;-55
2023/01/28 15:23:03;;;;;;;;;;;;;;;;;;5009724;28;19926;-55
2023/01/28 15:25:29;;;;;;;;;;;;;;;;;;5009562;28;20037;-57
2023/01/28 15:27:55;;;;;;;;;;;;;;;;;;5018370;28;19932;-57
2023/01/28 15:30:21;;;;;;;;;;;;;;;;;;5017329;28;20286;-56
2023/01/28 15:32:47;;;;;;;;;;;;;;;;;;5017994;28;19933;-56
2023/01/28 15:35:13;;;;;;;;;;;;;;;;;;5018444;28;19929;-57
2023/01/28 15:37:39;;;;;;;;;;;;;;;;;;5016892;28;20391;-56
2023/01/28 15:40:06;;;;;;;;;;;;;;;;;;5017515;28;20282;-55
2023/01/28 15:42:32;;;;;;;;;;;;;;;;;;5009796;28;19968;-54
2023/01/28 15:44:58;;;;;;;;;;;;;;;;;;5010943;28;20442;-56
2023/01/28 15:47:24;;;;;;;;;;;;;;;;;;5021947;28;19932;-55
2023/01/28 15:49:50;;;;;;;;;;;;;;;;;;5014068;28;19943;-56
2023/01/28 15:52:16;;;;;;;;;;;;;;;;;;5009085;28;20348;-55
2023/01/28 15:54:42;;;;;;;;;;;;;;;;;;5012759;28;20414;-56
2023/01/28 15:57:09;;;;;;;;;;;;;;;;;;5022734;28;19967;-56
2023/01/28 15:59:35;;;;;;;;;;;;;;;;;;5006545;28;19926;-56
2023/01/28 16:02:01;;;;;;;;;;;;;;;;;;5018469;28;19972;-55
2023/01/28 16:04:27;;;;;;;;;;;;;;;;;;5010129;28;19936;-55
2023/01/28 16:06:53;;;;;;;;;;;;;;;;;;5014505;28;19925;-56
2023/01/28 16:09:19;;;;;;;;;;;;;;;;;;5013368;28;19933;-54
2023/01/28 16:11:45;;;;;;;;;;;;;;;;;;5019038;28;19931;-55
2023/01/28 16:14:11;;;;;;;;;;;;;;;;;;5007740;28;19926;-55
2023/01/28 16:16:37;;;;;;;;;;;;;;;;;;5012653;28;19932;-55
2023/01/28 16:19:03;;;;;;;;;;;;;;;;;;5006871;28;19956;-56
2023/01/28 16:21:30;;;;;;;;;;;;;;;;;;5005823;28;20354;-56
2023/01/28 16:23:56;;;;;;;;;;;;;;;;;;5006889;28;19929;-56
2023/01/28 16:26:22;;;;;;;;;;;;;;;;;;5011912;28;19972;-55
2023/01/28 16:28:49;;;;;;;;;;;;;;;;;;5015803;28;20016;-57
2023/01/28 16:31:15;;;;;;;;;;;;;;;;;;5018728;28;20012;-56
2023/01/28 16:33:41;;;;;;;;;;;;;;;;;;5017129;28;20008;-56
2023/01/28 16:36:07;;;;;;;;;;;;;;;;;;5012906;28;19976;-55
2023/01/28 16:38:33;;;;;;;;;;;;;;;;;;5007915;28;20303;-53
2023/01/28 16:40:59;;;;;;;;;;;;;;;;;;5010462;28;19934;-57
2023/01/28 16:43:25;;;;;;;;;;;;;;;;;;5015158;28;19921;-56
2023/01/28 16:45:51;;;;;;;;;;;;;;;;;;5016335;28;20008;-56
2023/01/28 16:48:17;;;;;;;;;;;;;;;;;;5016782;28;19929;-56
2023/01/28 16:50:43;;;;;;;;;;;;;;;;;;5016855;28;20020;-54
2023/01/28 16:53:09;;;;;;;;;;;;;;;;;;5021845;28;19936;-56
2023/01/28 16:55:35;;;;;;;;;;;;;;;;;;5024889;28;19925;-57
2023/01/28 16:58:01;;;;;;;;;;;;;;;;;;5011500;28;20433;-56
2023/01/28 17:00:29;;;;;;;;;;;;;;;;;;5011751;28;19983;-51
2023/01/28 17:02:55;;;;;;;;;;;;;;;;;;5011878;28;20257;-56
2023/01/28 17:05:22;;;;;;;;;;;;;;;;;;5016477;28;19925;-56
2023/01/28 17:07:48;;;;;;;;;;;;;;;;;;5014348;28;20008;-56
2023/01/28 17:10:14;;;;;;;;;;;;;;;;;;5013899;28;19930;-55
2023/01/28 17:12:40;;;;;;;;;;;;;;;;;;5011280;28;19936;-57
2023/01/28 17:15:06;;;;;;;;;;;;;;;;;;5021034;28;19933;-56
2023/01/28 17:17:32;;;;;;;;;;;;;;;;;;5016510;28;20306;-56
2023/01/28 17:19:58;;;;;;;;;;;;;;;;;;5013413;28;19925;-56
2023/01/28 17:22:24;;;;;;;;;;;;;;;;;;5012237;28;20039;-56